createdAt,value
2019-05-07T00:01:43.988Z,8.38
2019-05-07T00:04:12.959Z,8.93
2019-05-07T00:06:43.415Z,8.18
2019-05-07T00:09:13.776Z,8.60
2019-05-07T00:11:42.771Z,8.65
2019-05-07T00:14:12.575Z,7.47
2019-05-07T00:16:42.317Z,7.15
2019-05-07T00:19:12.901Z,9.45
2019-05-07T00:21:42.408Z,7.25
2019-05-07T00:24:13.237Z,8.35
2019-05-07T00:26:43.063Z,7.67
2019-05-07T00:29:12.963Z,8.48
2019-05-07T00:31:42.138Z,6.55
2019-05-07T00:34:12.606Z,6.53
2019-05-07T00:36:59.228Z,7.12
2019-05-07T00:39:32.837Z,7.90
2019-05-07T00:42:22.056Z,8.10
2019-05-07T00:44:55.215Z,7.85
2019-05-07T00:47:23.978Z,8.18
2019-05-07T00:49:53.346Z,8.98
2019-05-07T00:52:22.582Z,7.58
2019-05-07T00:54:53.133Z,6.87
2019-05-07T00:57:22.900Z,6.15
2019-05-07T00:59:52.464Z,7.75
2019-05-07T01:02:22.833Z,6.17
2019-05-07T01:04:53.188Z,8.00
2019-05-07T01:07:22.963Z,6.15
2019-05-07T01:09:52.377Z,6.22
2019-05-07T01:12:22.203Z,5.78
2019-05-07T01:14:52.839Z,6.42
2019-05-07T01:17:22.667Z,6.20
2019-05-07T01:19:53.224Z,6.42
2019-05-07T01:22:22.369Z,6.30
2019-05-07T01:24:52.607Z,5.47
2019-05-07T01:27:22.650Z,7.08
2019-05-07T01:29:52.757Z,5.87
2019-05-07T01:32:23.213Z,6.87
2019-05-07T01:34:53.535Z,6.40
2019-05-07T01:37:23.116Z,8.83
2019-05-07T01:39:52.957Z,5.45
2019-05-07T01:42:22.199Z,6.00
2019-05-07T01:44:52.860Z,9.15
2019-05-07T01:47:23.534Z,11.00
2019-05-07T01:49:52.779Z,5.80
2019-05-07T01:52:22.744Z,5.90
2019-05-07T01:54:52.277Z,6.25
2019-05-07T01:57:22.998Z,7.17
2019-05-07T01:59:52.773Z,5.92
2019-05-07T02:02:23.336Z,5.72
2019-05-07T02:04:59.496Z,4.70
2019-05-07T02:07:35.941Z,7.42
2019-05-07T02:10:07.185Z,6.95
2019-05-07T02:12:37.348Z,5.37
2019-05-07T02:15:07.217Z,6.58
2019-05-07T02:17:35.990Z,5.28
2019-05-07T02:20:06.558Z,5.75
2019-05-07T02:22:35.325Z,5.37
2019-05-07T02:25:04.694Z,5.12
2019-05-07T02:27:33.451Z,5.35
2019-05-07T02:30:04.187Z,5.30
2019-05-07T02:32:33.577Z,4.95
2019-05-07T02:35:04.081Z,4.60
2019-05-07T02:37:47.118Z,6.25
2019-05-07T02:40:08.286Z,6.10
2019-05-07T02:42:37.244Z,4.70
2019-05-07T02:45:27.000Z,5.47
2019-05-07T02:47:55.755Z,4.28
2019-05-07T02:50:29.200Z,4.47
2019-05-07T02:53:05.592Z,5.72
2019-05-07T02:55:43.444Z,5.08
2019-05-07T02:58:13.715Z,6.33
2019-05-07T03:00:43.380Z,4.55
2019-05-07T03:03:13.892Z,4.95
2019-05-07T03:05:43.365Z,4.45
2019-05-07T03:08:13.473Z,4.37
2019-05-07T03:10:43.460Z,4.30
2019-05-07T03:13:13.684Z,4.35
2019-05-07T03:15:43.622Z,4.17
2019-05-07T03:18:13.854Z,4.97
2019-05-07T03:20:53.275Z,3.92
2019-05-07T03:23:22.910Z,4.35
2019-05-07T03:25:55.802Z,4.67
2019-05-07T03:28:26.077Z,4.25
2019-05-07T03:30:57.201Z,3.98
2019-05-07T03:33:27.750Z,8.03
2019-05-07T03:35:58.082Z,4.72
2019-05-07T03:38:26.855Z,3.37
2019-05-07T03:40:55.613Z,3.77
2019-05-07T03:43:25.958Z,3.15
2019-05-07T03:45:59.537Z,3.85
2019-05-07T03:48:32.991Z,2.72
2019-05-07T03:51:03.395Z,4.22
2019-05-07T03:53:33.546Z,2.60
2019-05-07T03:56:04.059Z,5.67
2019-05-07T03:58:33.925Z,3.72
2019-05-07T04:01:04.223Z,4.17
2019-05-07T04:03:34.139Z,3.92
2019-05-07T04:06:03.844Z,3.27
2019-05-07T04:08:33.587Z,3.52
2019-05-07T04:11:03.634Z,4.15
2019-05-07T04:13:33.662Z,3.65
2019-05-07T04:16:04.025Z,3.45
2019-05-07T04:18:33.448Z,4.85
2019-05-07T04:21:03.721Z,3.45
2019-05-07T04:23:34.159Z,3.72
2019-05-07T04:26:04.788Z,3.83
2019-05-07T04:28:35.144Z,10.50
2019-05-07T04:31:04.123Z,5.62
2019-05-07T04:33:37.296Z,2.60
2019-05-07T04:36:14.289Z,5.00
2019-05-07T04:38:43.962Z,6.22
2019-05-07T04:41:13.870Z,6.00
2019-05-07T04:43:43.456Z,4.50
2019-05-07T04:46:14.377Z,5.28
2019-05-07T04:48:43.895Z,4.03
2019-05-07T04:51:14.550Z,3.35
2019-05-07T04:53:43.397Z,2.65
2019-05-07T04:56:14.013Z,5.58
2019-05-07T04:58:43.307Z,3.83
2019-05-07T05:01:14.096Z,4.08
2019-05-07T05:03:43.654Z,2.60
2019-05-07T05:06:13.672Z,5.87
2019-05-07T05:08:43.579Z,2.85
2019-05-07T05:11:13.424Z,3.17
2019-05-07T05:13:44.507Z,4.08
2019-05-07T05:16:25.854Z,3.72
2019-05-07T05:18:55.814Z,4.60
2019-05-07T05:21:38.299Z,4.92
2019-05-07T05:24:14.408Z,3.75
2019-05-07T05:26:43.180Z,3.55
2019-05-07T05:29:12.189Z,5.75
2019-05-07T05:31:42.184Z,3.33
2019-05-07T05:34:12.961Z,6.62
2019-05-07T05:36:42.454Z,3.85
2019-05-07T05:39:13.147Z,9.65
2019-05-07T05:41:44.040Z,3.72
2019-05-07T05:44:14.388Z,4.62
2019-05-07T05:46:43.188Z,8.38
2019-05-07T05:49:12.274Z,5.22
2019-05-07T05:51:43.064Z,6.67
2019-05-07T05:54:25.282Z,3.35
2019-05-07T05:57:07.657Z,22.67
2019-05-07T05:59:49.211Z,8.18
2019-05-07T06:02:07.652Z,10.82
2019-05-07T06:04:54.142Z,12.05
2019-05-07T06:07:33.201Z,6.67
2019-05-07T06:10:06.223Z,8.63
2019-05-07T06:12:39.537Z,6.30
2019-05-07T06:15:24.760Z,4.15
2019-05-07T06:17:57.812Z,3.60
2019-05-07T06:20:33.873Z,4.30
2019-05-07T06:23:19.066Z,4.22
2019-05-07T06:25:48.725Z,6.08
2019-05-07T06:28:17.492Z,4.28
2019-05-07T06:30:46.264Z,3.62
2019-05-07T06:33:15.038Z,2.87
2019-05-07T06:35:43.804Z,6.08
2019-05-07T06:38:13.569Z,2.42
2019-05-07T06:40:46.607Z,3.95
2019-05-07T06:43:16.935Z,2.35
2019-05-07T06:45:47.273Z,3.83
2019-05-07T06:48:16.045Z,4.22
2019-05-07T06:50:56.940Z,3.02
2019-05-07T06:53:30.000Z,5.85
2019-05-07T06:55:59.986Z,4.00
2019-05-07T06:58:32.563Z,4.03
2019-05-07T07:01:17.847Z,2.00
2019-05-07T07:04:02.402Z,3.67
2019-05-07T07:06:52.344Z,2.17
2019-05-07T07:09:25.267Z,5.62
2019-05-07T07:12:07.634Z,3.35
2019-05-07T07:14:36.397Z,3.10
2019-05-07T07:17:05.168Z,5.45
2019-05-07T07:19:36.131Z,2.33
2019-05-07T07:22:04.449Z,2.08
2019-05-07T07:24:33.213Z,3.45
2019-05-07T07:27:02.489Z,1.67
2019-05-07T07:29:32.866Z,1.90
2019-05-07T07:32:03.205Z,2.08
2019-05-07T07:34:33.549Z,3.20
2019-05-07T07:37:18.788Z,3.67
2019-05-07T07:39:47.552Z,17.25
2019-05-07T07:42:16.324Z,5.22
2019-05-07T07:44:45.093Z,4.20
2019-05-07T07:47:13.857Z,3.87
2019-05-07T07:49:42.628Z,3.52
2019-05-07T07:52:12.222Z,4.10
2019-05-07T07:54:42.880Z,4.10
2019-05-07T07:57:13.054Z,6.80
2019-05-07T07:59:43.386Z,6.08
2019-05-07T08:02:28.869Z,8.35
2019-05-07T08:04:57.633Z,5.53
2019-05-07T08:07:26.395Z,5.78
2019-05-07T08:09:55.173Z,5.83
2019-05-07T08:12:23.942Z,4.12
2019-05-07T08:14:52.716Z,5.72
2019-05-07T08:17:22.359Z,7.00
2019-05-07T08:19:52.063Z,5.45
2019-05-07T08:22:22.621Z,6.95
2019-05-07T08:24:51.884Z,7.60
2019-05-07T08:27:22.210Z,6.85
2019-05-07T08:29:52.431Z,6.62
2019-05-07T08:32:39.131Z,10.75
2019-05-07T08:35:15.404Z,10.03
2019-05-07T08:37:44.180Z,6.67
2019-05-07T08:40:13.038Z,7.45
2019-05-07T08:42:41.953Z,8.53
2019-05-07T08:45:21.761Z,6.62
2019-05-07T08:47:52.555Z,6.60
2019-05-07T08:50:22.233Z,53.25
2019-05-07T08:52:52.179Z,8.53
2019-05-07T08:55:21.762Z,8.45
2019-05-07T08:57:52.116Z,8.65
2019-05-07T09:00:22.972Z,5.80
2019-05-07T09:02:52.462Z,18.85
2019-05-07T09:05:22.087Z,10.48
2019-05-07T09:07:51.727Z,10.03
2019-05-07T09:10:21.825Z,7.67
2019-05-07T09:12:52.450Z,7.28
2019-05-07T09:15:22.629Z,7.35
2019-05-07T09:17:52.649Z,6.97
2019-05-07T09:20:22.861Z,8.78
2019-05-07T09:22:51.910Z,7.58
2019-05-07T09:25:22.266Z,5.87
2019-05-07T09:27:52.844Z,6.37
2019-05-07T09:30:29.458Z,6.15
2019-05-07T09:33:05.475Z,8.53
2019-05-07T09:35:39.901Z,5.90
2019-05-07T09:38:08.726Z,8.73
2019-05-07T09:40:37.489Z,5.80
2019-05-07T09:43:06.255Z,10.00
2019-05-07T09:45:35.016Z,6.45
2019-05-07T09:48:03.886Z,5.37
2019-05-07T09:50:32.735Z,5.97
2019-05-07T09:53:02.315Z,3.77
2019-05-07T09:55:32.522Z,4.58
2019-05-07T09:58:01.990Z,4.00
2019-05-07T10:00:32.031Z,5.75
2019-05-07T10:03:00.904Z,7.15
2019-05-07T10:05:31.949Z,3.65
2019-05-07T10:08:01.865Z,4.75
2019-05-07T10:10:32.729Z,3.12
2019-05-07T10:13:08.478Z,4.17
2019-05-07T10:15:37.437Z,3.87
2019-05-07T10:20:42.328Z,3.45
2019-05-07T10:23:16.824Z,2.45
2019-05-07T10:25:50.908Z,3.25
2019-05-07T10:28:22.589Z,5.33
2019-05-07T10:30:52.117Z,3.70
2019-05-07T10:33:22.858Z,2.35
2019-05-07T10:35:52.916Z,3.45
2019-05-07T10:38:21.931Z,4.55
2019-05-07T10:40:50.666Z,5.40
2019-05-07T10:43:19.527Z,3.85
2019-05-07T10:45:51.969Z,2.92
2019-05-07T10:48:33.644Z,2.87
2019-05-07T10:51:06.776Z,3.37
2019-05-07T10:53:35.513Z,3.02
2019-05-07T10:56:04.322Z,4.60
2019-05-07T10:58:33.077Z,3.22
2019-05-07T11:01:02.948Z,2.80
2019-05-07T11:03:32.374Z,4.87
2019-05-07T11:06:01.304Z,3.87
2019-05-07T11:08:32.672Z,2.70
2019-05-07T11:11:02.956Z,2.50
2019-05-07T11:13:31.544Z,2.85
2019-05-07T11:16:02.442Z,3.15
2019-05-07T11:18:32.826Z,2.67
2019-05-07T11:21:03.084Z,3.33
2019-05-07T11:23:34.051Z,2.27
2019-05-07T11:26:02.813Z,2.40
2019-05-07T11:28:32.301Z,3.40
2019-05-07T11:31:02.121Z,2.10
2019-05-07T11:33:32.549Z,2.47
2019-05-07T11:36:02.047Z,6.05
2019-05-07T11:38:33.131Z,3.27
2019-05-07T11:41:02.276Z,2.47
2019-05-07T11:43:32.866Z,3.87
2019-05-07T11:46:09.084Z,3.12
2019-05-07T11:48:39.407Z,5.40
2019-05-07T11:51:15.481Z,3.65
2019-05-07T11:54:02.140Z,3.62
2019-05-07T11:56:32.776Z,4.62
2019-05-07T11:59:02.651Z,4.80
2019-05-07T12:01:44.009Z,4.20
2019-05-07T12:04:02.491Z,4.53
2019-05-07T12:06:32.152Z,8.58
2019-05-07T12:09:02.891Z,12.13
2019-05-07T12:11:32.196Z,10.18
2019-05-07T12:14:02.027Z,12.07
2019-05-07T12:16:32.118Z,13.40
2019-05-07T12:19:02.229Z,14.23
2019-05-07T12:21:31.349Z,19.45
2019-05-07T12:24:02.052Z,15.88
2019-05-07T12:26:31.558Z,17.23
2019-05-07T12:29:00.340Z,22.20
2019-05-07T12:31:42.771Z,26.68
2019-05-07T12:34:16.456Z,27.67
2019-05-07T12:36:45.215Z,25.12
2019-05-07T12:39:14.032Z,24.45
2019-05-07T12:41:42.868Z,26.57
2019-05-07T12:44:12.951Z,21.65
2019-05-07T12:46:42.375Z,26.00
2019-05-07T12:49:11.965Z,22.90
2019-05-07T12:51:42.787Z,27.25
2019-05-07T12:54:19.112Z,22.07
2019-05-07T12:56:47.945Z,22.42
2019-05-07T12:59:16.727Z,21.95
2019-05-07T13:01:52.773Z,22.27
2019-05-07T13:04:23.344Z,19.20
2019-05-07T13:07:02.502Z,18.87
2019-05-07T13:09:32.500Z,22.70
2019-05-07T13:12:03.040Z,17.77
2019-05-07T13:14:31.856Z,19.73
2019-05-07T13:17:02.619Z,18.90
2019-05-07T13:19:32.906Z,20.70
2019-05-07T13:22:02.315Z,19.17
2019-05-07T13:24:32.137Z,17.02
2019-05-07T13:27:03.101Z,14.43
2019-05-07T13:29:32.646Z,17.37
2019-05-07T13:32:03.592Z,15.08
2019-05-07T13:34:34.173Z,13.58
2019-05-07T13:37:04.845Z,14.47
2019-05-07T13:39:35.590Z,14.33
2019-05-07T13:42:12.678Z,14.63
2019-05-07T13:44:43.810Z,13.20
2019-05-07T13:47:26.281Z,14.83
2019-05-07T13:49:55.972Z,12.15
2019-05-07T13:52:25.219Z,14.95
2019-05-07T13:54:54.619Z,14.68
2019-05-07T13:57:23.595Z,11.63
2019-05-07T13:59:53.249Z,11.28
2019-05-07T14:02:23.687Z,12.73
2019-05-07T14:04:53.231Z,11.05
2019-05-07T14:07:22.503Z,11.03
2019-05-07T14:09:52.668Z,11.75
2019-05-07T14:12:22.941Z,11.88
2019-05-07T14:14:53.098Z,8.40
2019-05-07T14:17:22.193Z,8.73
2019-05-07T14:19:52.861Z,11.45
2019-05-07T14:22:22.504Z,12.60
2019-05-07T14:24:53.095Z,12.07
2019-05-07T14:27:22.236Z,13.08
2019-05-07T14:29:52.133Z,11.35
2019-05-07T14:32:35.179Z,12.95
2019-05-07T14:35:12.182Z,11.12
2019-05-07T14:37:42.350Z,11.50
2019-05-07T14:40:12.916Z,11.45
2019-05-07T14:42:43.361Z,12.73
2019-05-07T14:45:12.327Z,14.00
2019-05-07T14:47:44.418Z,12.10
2019-05-07T14:50:12.316Z,12.00
2019-05-07T14:52:43.048Z,10.82
2019-05-07T14:55:12.751Z,10.82
2019-05-07T14:57:42.196Z,13.58
2019-05-07T15:00:12.365Z,12.90
2019-05-07T15:02:42.133Z,12.55
2019-05-07T15:05:12.019Z,12.70
2019-05-07T15:07:41.165Z,12.75
2019-05-07T15:10:10.039Z,14.35
2019-05-07T15:12:38.801Z,17.35
2019-05-07T15:15:08.169Z,19.90
2019-05-07T15:17:47.231Z,14.03
2019-05-07T15:20:16.586Z,16.77
2019-05-07T15:22:52.762Z,17.62
2019-05-07T15:25:22.710Z,14.38
2019-05-07T15:27:52.758Z,18.57
2019-05-07T15:30:22.177Z,16.93
2019-05-07T15:32:52.138Z,15.83
2019-05-07T15:35:21.008Z,14.25
2019-05-07T15:37:51.697Z,14.50
2019-05-07T15:40:22.333Z,14.25
2019-05-07T15:42:52.489Z,13.32
2019-05-07T15:45:21.772Z,12.47
2019-05-07T15:47:52.140Z,16.95
2019-05-07T15:50:23.043Z,17.37
2019-05-07T15:52:58.534Z,13.98
2019-05-07T15:55:23.828Z,10.32
2019-05-07T15:57:52.697Z,13.13
2019-05-07T16:00:28.860Z,14.38
2019-05-07T16:02:59.190Z,14.00
2019-05-07T16:05:27.959Z,13.30
2019-05-07T16:07:56.731Z,13.55
2019-05-07T16:10:25.512Z,13.85
2019-05-07T16:12:54.376Z,15.75
2019-05-07T16:15:23.647Z,16.02
2019-05-07T16:18:03.055Z,21.07
2019-05-07T16:20:32.599Z,27.15
2019-05-07T16:23:14.434Z,27.48
2019-05-07T16:25:33.000Z,31.07
2019-05-07T16:28:04.762Z,34.60
2019-05-07T16:30:32.630Z,37.70
2019-05-07T16:33:02.188Z,40.65
2019-05-07T16:35:32.019Z,42.20
2019-05-07T16:38:00.953Z,43.38
2019-05-07T16:40:32.094Z,50.65
2019-05-07T16:43:00.153Z,50.83
2019-05-07T16:45:28.923Z,57.38
2019-05-07T16:48:00.398Z,56.90
2019-05-07T16:50:28.220Z,53.15
2019-05-07T16:52:56.996Z,54.10
2019-05-07T16:55:27.382Z,53.33
2019-05-07T16:58:03.695Z,56.53
2019-05-07T17:00:34.132Z,57.15
2019-05-07T17:03:04.487Z,58.78
2019-05-07T17:05:33.282Z,59.58
2019-05-07T17:08:03.659Z,60.08
2019-05-07T17:10:32.452Z,54.13
2019-05-07T17:13:02.885Z,53.23
2019-05-07T17:15:33.306Z,56.28
2019-05-07T17:18:02.815Z,54.80
2019-05-07T17:20:32.742Z,54.55
2019-05-07T17:23:02.966Z,50.12
2019-05-07T17:25:37.908Z,51.00
2019-05-07T17:28:08.390Z,47.00
2019-05-07T17:30:37.869Z,51.25
2019-05-07T17:33:06.997Z,52.17
2019-05-07T17:35:35.771Z,51.60
2019-05-07T17:38:09.472Z,45.43
2019-05-07T17:40:34.981Z,45.98
2019-05-07T17:43:03.849Z,45.92
2019-05-07T17:45:33.016Z,50.58
2019-05-07T17:48:03.227Z,47.73
2019-05-07T17:50:39.753Z,48.20
2019-05-07T17:53:08.519Z,46.28
2019-05-07T17:55:37.301Z,45.90
2019-05-07T17:58:06.072Z,43.10
2019-05-07T18:00:34.912Z,44.30
2019-05-07T18:03:07.952Z,44.40
2019-05-07T18:05:36.760Z,40.70
2019-05-07T18:08:05.536Z,42.13
2019-05-07T18:10:34.323Z,40.23
2019-05-07T18:13:03.092Z,43.80
2019-05-07T18:15:32.304Z,40.03
2019-05-07T18:18:05.148Z,37.42
2019-05-07T18:20:33.927Z,39.55
2019-05-07T18:23:02.804Z,39.50
2019-05-07T18:25:32.405Z,38.70
2019-05-07T18:28:01.813Z,37.10
2019-05-07T18:30:32.638Z,40.20
2019-05-07T18:33:14.644Z,39.65
2019-05-07T18:35:45.596Z,38.02
2019-05-07T18:38:14.372Z,36.23
2019-05-07T18:40:43.181Z,35.33
2019-05-07T18:43:12.365Z,35.80
2019-05-07T18:45:41.115Z,39.90
2019-05-07T18:48:11.828Z,35.80
2019-05-07T18:50:41.981Z,36.15
2019-05-07T18:53:12.199Z,35.55
2019-05-07T18:55:42.321Z,38.75
2019-05-07T18:58:13.157Z,35.63
2019-05-07T19:00:43.166Z,31.57
2019-05-07T19:03:11.940Z,33.15
2019-05-07T19:05:42.426Z,36.93
2019-05-07T19:08:12.860Z,35.28
2019-05-07T19:10:42.912Z,31.20
2019-05-07T19:13:11.777Z,37.88
2019-05-07T19:15:42.010Z,34.43
2019-05-07T19:18:12.115Z,32.80
2019-05-07T19:20:42.189Z,33.53
2019-05-07T19:23:11.087Z,31.33
2019-05-07T19:25:41.929Z,30.12
2019-05-07T19:28:12.748Z,32.25
2019-05-07T19:30:42.080Z,30.25
2019-05-07T19:33:12.364Z,30.95
2019-05-07T19:35:41.905Z,31.62
2019-05-07T19:38:10.764Z,29.80
2019-05-07T19:40:41.483Z,29.48
2019-05-07T19:43:09.990Z,32.08
2019-05-07T19:45:38.756Z,27.42
2019-05-07T19:48:09.312Z,32.28
2019-05-07T19:50:38.003Z,26.62
2019-05-07T19:53:06.785Z,28.52
2019-05-07T19:55:53.731Z,31.00
2019-05-07T19:58:23.097Z,28.27
2019-05-07T20:00:56.858Z,25.82
2019-05-07T20:03:22.533Z,24.30
2019-05-07T20:05:52.507Z,28.30
2019-05-07T20:08:21.816Z,30.23
2019-05-07T20:11:02.710Z,26.55
2019-05-07T20:13:32.368Z,23.92
2019-05-07T20:16:08.592Z,37.48
2019-05-07T20:18:37.371Z,24.20
2019-05-07T20:21:06.141Z,22.75
2019-05-07T20:23:34.931Z,24.72
2019-05-07T20:26:04.035Z,23.90
2019-05-07T20:28:32.891Z,21.55
2019-05-07T20:31:01.729Z,23.07
2019-05-07T20:33:32.569Z,23.87
2019-05-07T20:36:02.648Z,27.02
2019-05-07T20:38:32.105Z,22.02
2019-05-07T20:41:02.126Z,22.75
2019-05-07T20:43:32.646Z,21.60
2019-05-07T20:46:02.657Z,20.45
2019-05-07T20:48:32.480Z,21.57
2019-05-07T20:51:01.417Z,22.50
2019-05-07T20:53:48.047Z,20.90
2019-05-07T20:56:18.406Z,17.85
2019-05-07T20:58:47.167Z,21.93
2019-05-07T21:01:15.948Z,20.10
2019-05-07T21:03:44.734Z,19.17
2019-05-07T21:06:13.512Z,19.62
2019-05-07T21:08:42.846Z,21.65
2019-05-07T21:11:12.021Z,18.92
2019-05-07T21:13:42.603Z,19.00
2019-05-07T21:16:12.613Z,20.48
2019-05-07T21:18:42.107Z,20.08
2019-05-07T21:21:12.512Z,18.15
2019-05-07T21:23:43.408Z,20.10
2019-05-07T21:26:13.071Z,18.35
2019-05-07T21:28:43.064Z,18.02
2019-05-07T21:31:12.211Z,17.50
2019-05-07T21:33:42.943Z,19.82
2019-05-07T21:36:12.054Z,15.65
2019-05-07T21:38:42.535Z,17.55
2019-05-07T21:41:12.804Z,19.27
2019-05-07T21:43:45.614Z,16.97
2019-05-07T21:46:12.932Z,17.05
2019-05-07T21:48:41.793Z,17.12
2019-05-07T21:51:12.238Z,18.30
2019-05-07T21:54:00.901Z,16.32
2019-05-07T21:56:36.726Z,15.72
2019-05-07T21:59:04.797Z,15.55
2019-05-07T22:01:37.953Z,18.23
2019-05-07T22:04:06.831Z,18.95
2019-05-07T22:06:35.624Z,17.07
2019-05-07T22:09:07.016Z,16.60
2019-05-07T22:11:35.800Z,17.05
2019-05-07T22:14:04.580Z,16.95
2019-05-07T22:16:33.351Z,14.38
2019-05-07T22:19:02.766Z,13.60
2019-05-07T22:21:33.916Z,15.08
2019-05-07T22:24:02.822Z,18.57
2019-05-07T22:26:32.327Z,16.30
2019-05-07T22:29:03.137Z,14.05
2019-05-07T22:31:39.170Z,14.03
2019-05-07T22:34:09.504Z,16.00
2019-05-07T22:36:38.391Z,15.75
2019-05-07T22:39:07.361Z,13.55
2019-05-07T22:41:36.153Z,14.53
2019-05-07T22:44:04.927Z,14.87
2019-05-07T22:46:33.722Z,14.78
2019-05-07T22:49:03.146Z,14.83
2019-05-07T22:51:31.977Z,13.58
2019-05-07T22:54:04.089Z,13.22
2019-05-07T22:56:48.877Z,12.60
2019-05-07T22:59:17.771Z,14.83
2019-05-07T23:01:46.521Z,14.40
2019-05-07T23:04:15.301Z,12.68
2019-05-07T23:06:44.076Z,11.45
2019-05-07T23:09:12.897Z,11.55
2019-05-07T23:11:41.675Z,11.20
2019-05-07T23:14:11.847Z,13.10
2019-05-07T23:16:42.576Z,15.20
2019-05-07T23:19:13.932Z,13.00
2019-05-07T23:21:42.546Z,12.40
2019-05-07T23:24:11.515Z,12.47
2019-05-07T23:26:48.113Z,11.90
2019-05-07T23:29:11.864Z,11.57
2019-05-07T23:31:40.620Z,12.40
2019-05-07T23:34:09.404Z,12.10
2019-05-07T23:36:38.173Z,10.63
2019-05-07T23:39:08.695Z,10.98
2019-05-07T23:41:55.242Z,10.75
2019-05-07T23:44:24.023Z,10.85
2019-05-07T23:46:52.788Z,11.15
2019-05-07T23:49:23.205Z,10.95
2019-05-07T23:51:53.047Z,10.53
2019-05-07T23:54:23.043Z,10.32
2019-05-07T23:57:05.064Z,12.23
2019-05-07T23:59:22.470Z,10.60
